sensor_id;sensor_type;location;lat;lon;timestamp;temperature;humidity
48936;DHT22;34745;52.276;10.528;2024-03-22T00:00:58;9.00;1.00
48936;DHT22;34745;52.276;10.528;2024-03-22T00:03:44;9.10;1.00
48936;DHT22;34745;52.276;10.528;2024-03-22T00:06:32;9.00;1.00
48936;DHT22;34745;52.276;10.528;2024-03-22T00:09:19;9.00;1.00
48936;DHT22;34745;52.276;10.528;2024-03-22T00:12:04;9.10;1.00
48936;DHT22;34745;52.276;10.528;2024-03-22T00:14:49;9.00;1.00
48936;DHT22;34745;52.276;10.528;2024-03-22T00:17:35;9.00;1.00
48936;DHT22;34745;52.276;10.528;2024-03-22T00:20:21;9.10;1.00
48936;DHT22;34745;52.276;10.528;2024-03-22T00:23:06;9.10;1.00
48936;DHT22;34745;52.276;10.528;2024-03-22T00:25:52;9.10;1.00
48936;DHT22;34745;52.276;10.528;2024-03-22T00:28:37;9.00;1.00
48936;DHT22;34745;52.276;10.528;2024-03-22T00:31:22;9.00;1.00
48936;DHT22;34745;52.276;10.528;2024-03-22T00:34:07;9.10;1.00
48936;DHT22;34745;52.276;10.528;2024-03-22T00:36:55;9.00;1.00
48936;DHT22;34745;52.276;10.528;2024-03-22T00:39:40;9.00;1.00
48936;DHT22;34745;52.276;10.528;2024-03-22T00:42:26;9.00;1.00
48936;DHT22;34745;52.276;10.528;2024-03-22T00:45:11;9.00;1.00
48936;DHT22;34745;52.276;10.528;2024-03-22T00:47:57;9.00;1.00
48936;DHT22;34745;52.276;10.528;2024-03-22T00:50:42;9.10;1.00
48936;DHT22;34745;52.276;10.528;2024-03-22T00:53:27;9.00;1.00
48936;DHT22;34745;52.276;10.528;2024-03-22T00:56:13;9.10;1.00
48936;DHT22;34745;52.276;10.528;2024-03-22T00:58:58;9.10;1.00
48936;DHT22;34745;52.276;10.528;2024-03-22T01:01:43;9.10;1.00
48936;DHT22;34745;52.276;10.528;2024-03-22T01:04:29;9.20;1.00
48936;DHT22;34745;52.276;10.528;2024-03-22T01:07:13;9.20;1.00
48936;DHT22;34745;52.276;10.528;2024-03-22T01:10:00;9.20;1.00
48936;DHT22;34745;52.276;10.528;2024-03-22T01:12:45;9.20;1.00
48936;DHT22;34745;52.276;10.528;2024-03-22T01:15:31;9.20;1.00
48936;DHT22;34745;52.276;10.528;2024-03-22T01:18:16;9.30;1.00
48936;DHT22;34745;52.276;10.528;2024-03-22T01:21:02;9.20;1.00
48936;DHT22;34745;52.276;10.528;2024-03-22T01:23:47;9.20;1.00
48936;DHT22;34745;52.276;10.528;2024-03-22T01:26:32;9.20;1.00
48936;DHT22;34745;52.276;10.528;2024-03-22T01:29:17;9.20;1.00
48936;DHT22;34745;52.276;10.528;2024-03-22T01:32:04;9.20;1.00
48936;DHT22;34745;52.276;10.528;2024-03-22T01:34:49;9.20;1.00
48936;DHT22;34745;52.276;10.528;2024-03-22T01:37:34;9.20;1.00
48936;DHT22;34745;52.276;10.528;2024-03-22T01:40:19;9.20;1.00
48936;DHT22;34745;52.276;10.528;2024-03-22T01:43:05;9.30;1.00
48936;DHT22;34745;52.276;10.528;2024-03-22T01:45:50;9.30;1.00
48936;DHT22;34745;52.276;10.528;2024-03-22T01:48:36;9.30;1.00
48936;DHT22;34745;52.276;10.528;2024-03-22T01:51:22;9.30;1.00
48936;DHT22;34745;52.276;10.528;2024-03-22T01:54:09;9.30;1.00
48936;DHT22;34745;52.276;10.528;2024-03-22T01:56:54;9.30;1.00
48936;DHT22;34745;52.276;10.528;2024-03-22T01:59:39;9.30;1.00
48936;DHT22;34745;52.276;10.528;2024-03-22T02:02:24;9.30;1.00
48936;DHT22;34745;52.276;10.528;2024-03-22T02:05:15;9.40;1.00
48936;DHT22;34745;52.276;10.528;2024-03-22T02:08:01;9.40;1.00
48936;DHT22;34745;52.276;10.528;2024-03-22T02:10:46;9.40;1.00
48936;DHT22;34745;52.276;10.528;2024-03-22T02:13:32;9.40;1.00
48936;DHT22;34745;52.276;10.528;2024-03-22T02:16:16;9.40;1.00
48936;DHT22;34745;52.276;10.528;2024-03-22T02:19:01;9.40;1.00
48936;DHT22;34745;52.276;10.528;2024-03-22T02:21:48;9.40;1.00
48936;DHT22;34745;52.276;10.528;2024-03-22T02:24:34;9.40;1.00
48936;DHT22;34745;52.276;10.528;2024-03-22T02:27:19;9.40;1.00
48936;DHT22;34745;52.276;10.528;2024-03-22T02:30:05;9.40;1.00
48936;DHT22;34745;52.276;10.528;2024-03-22T02:32:50;9.50;1.00
48936;DHT22;34745;52.276;10.528;2024-03-22T02:35:36;9.50;1.00
48936;DHT22;34745;52.276;10.528;2024-03-22T02:38:20;9.50;1.00
48936;DHT22;34745;52.276;10.528;2024-03-22T02:41:06;9.50;1.00
48936;DHT22;34745;52.276;10.528;2024-03-22T02:43:51;9.50;1.00
48936;DHT22;34745;52.276;10.528;2024-03-22T02:46:35;9.40;1.00
48936;DHT22;34745;52.276;10.528;2024-03-22T02:49:21;9.50;1.00
48936;DHT22;34745;52.276;10.528;2024-03-22T02:52:06;9.50;1.00
48936;DHT22;34745;52.276;10.528;2024-03-22T02:54:51;9.50;1.00
48936;DHT22;34745;52.276;10.528;2024-03-22T02:57:37;9.50;1.00
48936;DHT22;34745;52.276;10.528;2024-03-22T03:00:22;9.40;1.00
48936;DHT22;34745;52.276;10.528;2024-03-22T03:03:07;9.50;1.00
48936;DHT22;34745;52.276;10.528;2024-03-22T03:05:53;9.40;1.00
48936;DHT22;34745;52.276;10.528;2024-03-22T03:08:38;9.40;1.00
48936;DHT22;34745;52.276;10.528;2024-03-22T03:11:23;9.50;1.00
48936;DHT22;34745;52.276;10.528;2024-03-22T03:14:09;9.40;1.00
48936;DHT22;34745;52.276;10.528;2024-03-22T03:16:54;9.40;1.00
48936;DHT22;34745;52.276;10.528;2024-03-22T03:19:40;9.40;1.00
48936;DHT22;34745;52.276;10.528;2024-03-22T03:22:25;9.40;1.00
48936;DHT22;34745;52.276;10.528;2024-03-22T03:25:13;9.40;1.00
48936;DHT22;34745;52.276;10.528;2024-03-22T03:27:58;9.50;1.00
48936;DHT22;34745;52.276;10.528;2024-03-22T03:30:45;9.50;1.00
48936;DHT22;34745;52.276;10.528;2024-03-22T03:33:30;9.50;1.00
48936;DHT22;34745;52.276;10.528;2024-03-22T03:36:15;9.70;1.00
48936;DHT22;34745;52.276;10.528;2024-03-22T03:39:00;9.50;1.00
48936;DHT22;34745;52.276;10.528;2024-03-22T03:41:45;9.40;1.00
48936;DHT22;34745;52.276;10.528;2024-03-22T03:44:30;9.40;1.00
48936;DHT22;34745;52.276;10.528;2024-03-22T03:47:16;9.40;1.00
48936;DHT22;34745;52.276;10.528;2024-03-22T03:50:01;9.40;1.00
48936;DHT22;34745;52.276;10.528;2024-03-22T03:52:47;9.40;1.00
48936;DHT22;34745;52.276;10.528;2024-03-22T03:55:32;9.40;1.00
48936;DHT22;34745;52.276;10.528;2024-03-22T03:58:18;9.40;1.00
48936;DHT22;34745;52.276;10.528;2024-03-22T04:01:05;9.60;1.00
48936;DHT22;34745;52.276;10.528;2024-03-22T04:03:51;9.50;1.00
48936;DHT22;34745;52.276;10.528;2024-03-22T04:06:36;9.50;1.00
48936;DHT22;34745;52.276;10.528;2024-03-22T04:09:21;9.50;1.00
48936;DHT22;34745;52.276;10.528;2024-03-22T04:12:06;9.50;1.00
48936;DHT22;34745;52.276;10.528;2024-03-22T04:14:52;9.50;1.00
48936;DHT22;34745;52.276;10.528;2024-03-22T04:17:37;9.50;1.00
48936;DHT22;34745;52.276;10.528;2024-03-22T04:20:24;9.50;1.00
48936;DHT22;34745;52.276;10.528;2024-03-22T04:23:09;9.50;1.00
48936;DHT22;34745;52.276;10.528;2024-03-22T04:25:55;9.50;1.00
48936;DHT22;34745;52.276;10.528;2024-03-22T04:28:40;9.50;1.00
48936;DHT22;34745;52.276;10.528;2024-03-22T04:31:25;9.50;1.00
48936;DHT22;34745;52.276;10.528;2024-03-22T04:34:10;9.50;1.00
48936;DHT22;34745;52.276;10.528;2024-03-22T04:36:57;9.60;1.00
48936;DHT22;34745;52.276;10.528;2024-03-22T04:39:42;9.50;1.00
48936;DHT22;34745;52.276;10.528;2024-03-22T04:42:30;9.50;1.00
48936;DHT22;34745;52.276;10.528;2024-03-22T04:45:15;9.50;1.00
48936;DHT22;34745;52.276;10.528;2024-03-22T04:48:01;9.50;1.00
48936;DHT22;34745;52.276;10.528;2024-03-22T04:50:47;9.50;1.00
48936;DHT22;34745;52.276;10.528;2024-03-22T04:53:36;9.50;1.00
48936;DHT22;34745;52.276;10.528;2024-03-22T04:56:21;9.50;1.00
48936;DHT22;34745;52.276;10.528;2024-03-22T04:59:06;9.50;1.00
48936;DHT22;34745;52.276;10.528;2024-03-22T05:01:51;9.50;1.00
48936;DHT22;34745;52.276;10.528;2024-03-22T05:04:35;9.50;1.00
48936;DHT22;34745;52.276;10.528;2024-03-22T05:07:22;9.60;1.00
48936;DHT22;34745;52.276;10.528;2024-03-22T05:10:09;9.60;1.00
48936;DHT22;34745;52.276;10.528;2024-03-22T05:12:54;9.50;1.00
48936;DHT22;34745;52.276;10.528;2024-03-22T05:15:39;9.50;1.00
48936;DHT22;34745;52.276;10.528;2024-03-22T05:18:24;9.50;1.00
48936;DHT22;34745;52.276;10.528;2024-03-22T05:21:09;9.60;1.00
48936;DHT22;34745;52.276;10.528;2024-03-22T05:23:57;9.60;1.00
48936;DHT22;34745;52.276;10.528;2024-03-22T05:26:44;9.60;1.00
48936;DHT22;34745;52.276;10.528;2024-03-22T05:29:28;9.60;1.00
48936;DHT22;34745;52.276;10.528;2024-03-22T05:32:13;9.60;1.00
48936;DHT22;34745;52.276;10.528;2024-03-22T05:34:58;9.60;1.00
48936;DHT22;34745;52.276;10.528;2024-03-22T05:37:43;9.60;1.00
48936;DHT22;34745;52.276;10.528;2024-03-22T05:40:28;9.60;1.00
48936;DHT22;34745;52.276;10.528;2024-03-22T05:43:15;9.60;1.00
48936;DHT22;34745;52.276;10.528;2024-03-22T05:46:00;9.70;1.00
48936;DHT22;34745;52.276;10.528;2024-03-22T05:48:45;9.70;1.00
48936;DHT22;34745;52.276;10.528;2024-03-22T05:51:30;9.70;1.00
48936;DHT22;34745;52.276;10.528;2024-03-22T05:54:15;9.80;1.00
48936;DHT22;34745;52.276;10.528;2024-03-22T05:56:59;9.80;1.00
48936;DHT22;34745;52.276;10.528;2024-03-22T05:59:46;9.90;1.00
48936;DHT22;34745;52.276;10.528;2024-03-22T06:02:33;9.80;1.00
48936;DHT22;34745;52.276;10.528;2024-03-22T06:05:18;9.90;1.00
48936;DHT22;34745;52.276;10.528;2024-03-22T06:08:03;9.90;1.00
48936;DHT22;34745;52.276;10.528;2024-03-22T06:10:49;9.90;1.00
48936;DHT22;34745;52.276;10.528;2024-03-22T06:13:33;10.00;1.00
48936;DHT22;34745;52.276;10.528;2024-03-22T06:16:21;9.90;1.00
48936;DHT22;34745;52.276;10.528;2024-03-22T06:19:06;9.90;1.00
48936;DHT22;34745;52.276;10.528;2024-03-22T06:21:51;9.90;1.00
48936;DHT22;34745;52.276;10.528;2024-03-22T06:24:36;9.90;1.00
48936;DHT22;34745;52.276;10.528;2024-03-22T06:27:21;10.00;1.00
48936;DHT22;34745;52.276;10.528;2024-03-22T06:30:07;10.00;1.00
48936;DHT22;34745;52.276;10.528;2024-03-22T06:32:53;10.00;1.00
48936;DHT22;34745;52.276;10.528;2024-03-22T06:35:39;10.00;1.00
48936;DHT22;34745;52.276;10.528;2024-03-22T06:38:23;10.10;1.00
48936;DHT22;34745;52.276;10.528;2024-03-22T06:41:09;10.10;1.00
48936;DHT22;34745;52.276;10.528;2024-03-22T06:43:53;10.10;1.00
48936;DHT22;34745;52.276;10.528;2024-03-22T06:46:38;10.10;1.00
48936;DHT22;34745;52.276;10.528;2024-03-22T06:49:24;10.20;1.00
48936;DHT22;34745;52.276;10.528;2024-03-22T06:52:10;10.20;1.00
48936;DHT22;34745;52.276;10.528;2024-03-22T06:54:55;10.20;1.00
48936;DHT22;34745;52.276;10.528;2024-03-22T06:57:40;10.30;1.00
48936;DHT22;34745;52.276;10.528;2024-03-22T07:00:25;10.30;1.00
48936;DHT22;34745;52.276;10.528;2024-03-22T07:03:10;10.30;1.00
48936;DHT22;34745;52.276;10.528;2024-03-22T07:05:56;10.40;1.00
48936;DHT22;34745;52.276;10.528;2024-03-22T07:08:42;10.30;1.00
48936;DHT22;34745;52.276;10.528;2024-03-22T07:11:27;10.30;1.00
48936;DHT22;34745;52.276;10.528;2024-03-22T07:14:12;10.40;1.00
48936;DHT22;34745;52.276;10.528;2024-03-22T07:16:57;10.50;1.00
48936;DHT22;34745;52.276;10.528;2024-03-22T07:19:42;10.50;1.00
48936;DHT22;34745;52.276;10.528;2024-03-22T07:22:29;10.40;1.00
48936;DHT22;34745;52.276;10.528;2024-03-22T07:25:17;10.50;1.00
48936;DHT22;34745;52.276;10.528;2024-03-22T07:28:02;10.50;1.00
48936;DHT22;34745;52.276;10.528;2024-03-22T07:30:47;10.60;1.00
48936;DHT22;34745;52.276;10.528;2024-03-22T07:33:33;10.60;1.00
48936;DHT22;34745;52.276;10.528;2024-03-22T07:36:18;10.60;1.00
48936;DHT22;34745;52.276;10.528;2024-03-22T07:39:05;10.70;1.00
48936;DHT22;34745;52.276;10.528;2024-03-22T07:41:58;10.70;1.00
48936;DHT22;34745;52.276;10.528;2024-03-22T07:44:43;10.70;1.00
48936;DHT22;34745;52.276;10.528;2024-03-22T07:47:28;10.80;1.00
48936;DHT22;34745;52.276;10.528;2024-03-22T07:50:14;10.90;1.00
48936;DHT22;34745;52.276;10.528;2024-03-22T07:52:59;11.00;1.00
48936;DHT22;34745;52.276;10.528;2024-03-22T07:55:46;11.00;1.00
48936;DHT22;34745;52.276;10.528;2024-03-22T07:58:31;11.00;1.00
48936;DHT22;34745;52.276;10.528;2024-03-22T08:01:16;11.10;1.00
48936;DHT22;34745;52.276;10.528;2024-03-22T08:04:02;11.20;1.00
48936;DHT22;34745;52.276;10.528;2024-03-22T08:06:48;11.30;1.00
48936;DHT22;34745;52.276;10.528;2024-03-22T08:09:35;11.30;1.00
48936;DHT22;34745;52.276;10.528;2024-03-22T08:12:21;11.20;1.00
48936;DHT22;34745;52.276;10.528;2024-03-22T08:15:07;11.30;1.00
48936;DHT22;34745;52.276;10.528;2024-03-22T08:17:52;11.40;1.00
48936;DHT22;34745;52.276;10.528;2024-03-22T08:20:36;11.30;1.00
48936;DHT22;34745;52.276;10.528;2024-03-22T08:23:23;11.30;1.00
48936;DHT22;34745;52.276;10.528;2024-03-22T08:26:08;11.30;1.00
48936;DHT22;34745;52.276;10.528;2024-03-22T08:28:54;11.30;1.00
48936;DHT22;34745;52.276;10.528;2024-03-22T08:31:39;11.40;1.00
48936;DHT22;34745;52.276;10.528;2024-03-22T08:34:25;11.50;1.00
48936;DHT22;34745;52.276;10.528;2024-03-22T08:37:10;11.40;1.00
48936;DHT22;34745;52.276;10.528;2024-03-22T08:39:54;11.40;1.00
48936;DHT22;34745;52.276;10.528;2024-03-22T08:42:39;11.40;1.00
48936;DHT22;34745;52.276;10.528;2024-03-22T08:45:25;11.50;1.00
48936;DHT22;34745;52.276;10.528;2024-03-22T08:48:11;11.60;1.00
48936;DHT22;34745;52.276;10.528;2024-03-22T08:50:55;11.60;1.00
48936;DHT22;34745;52.276;10.528;2024-03-22T08:53:40;11.60;1.00
48936;DHT22;34745;52.276;10.528;2024-03-22T08:56:25;11.60;1.00
48936;DHT22;34745;52.276;10.528;2024-03-22T08:59:10;11.70;1.00
48936;DHT22;34745;52.276;10.528;2024-03-22T09:01:57;11.60;1.00
48936;DHT22;34745;52.276;10.528;2024-03-22T09:04:42;11.70;1.00
48936;DHT22;34745;52.276;10.528;2024-03-22T09:07:27;11.70;1.00
48936;DHT22;34745;52.276;10.528;2024-03-22T09:10:12;11.70;1.00
48936;DHT22;34745;52.276;10.528;2024-03-22T09:12:57;11.80;1.00
48936;DHT22;34745;52.276;10.528;2024-03-22T09:15:42;11.90;1.00
48936;DHT22;34745;52.276;10.528;2024-03-22T09:18:28;12.00;1.00
48936;DHT22;34745;52.276;10.528;2024-03-22T09:21:14;12.00;1.00
48936;DHT22;34745;52.276;10.528;2024-03-22T09:23:59;12.10;1.00
48936;DHT22;34745;52.276;10.528;2024-03-22T09:26:44;12.10;1.00
48936;DHT22;34745;52.276;10.528;2024-03-22T09:29:29;12.10;1.00
48936;DHT22;34745;52.276;10.528;2024-03-22T09:32:14;12.10;1.00
48936;DHT22;34745;52.276;10.528;2024-03-22T09:35:00;12.00;1.00
48936;DHT22;34745;52.276;10.528;2024-03-22T09:37:46;12.00;1.00
48936;DHT22;34745;52.276;10.528;2024-03-22T09:40:31;12.10;1.00
48936;DHT22;34745;52.276;10.528;2024-03-22T09:43:16;12.10;1.00
48936;DHT22;34745;52.276;10.528;2024-03-22T09:46:03;12.00;1.00
48936;DHT22;34745;52.276;10.528;2024-03-22T09:48:48;12.10;1.00
48936;DHT22;34745;52.276;10.528;2024-03-22T09:51:36;12.20;1.00
48936;DHT22;34745;52.276;10.528;2024-03-22T09:54:24;12.20;1.00
48936;DHT22;34745;52.276;10.528;2024-03-22T09:57:13;12.20;1.00
48936;DHT22;34745;52.276;10.528;2024-03-22T09:59:59;12.20;1.00
48936;DHT22;34745;52.276;10.528;2024-03-22T10:02:44;13.60;1.00
48936;DHT22;34745;52.276;10.528;2024-03-22T10:05:30;12.20;1.00
48936;DHT22;34745;52.276;10.528;2024-03-22T10:08:16;12.20;1.00
48936;DHT22;34745;52.276;10.528;2024-03-22T10:11:02;12.30;1.00
48936;DHT22;34745;52.276;10.528;2024-03-22T10:13:47;12.40;1.00
48936;DHT22;34745;52.276;10.528;2024-03-22T10:16:36;12.30;1.00
48936;DHT22;34745;52.276;10.528;2024-03-22T10:19:21;12.40;1.00
48936;DHT22;34745;52.276;10.528;2024-03-22T10:22:06;12.40;1.00
48936;DHT22;34745;52.276;10.528;2024-03-22T10:24:53;12.50;1.00
48936;DHT22;34745;52.276;10.528;2024-03-22T10:27:38;12.60;1.00
48936;DHT22;34745;52.276;10.528;2024-03-22T10:30:24;12.70;1.00
48936;DHT22;34745;52.276;10.528;2024-03-22T10:33:09;12.80;1.00
48936;DHT22;34745;52.276;10.528;2024-03-22T10:35:54;12.90;1.00
48936;DHT22;34745;52.276;10.528;2024-03-22T10:38:39;12.90;1.00
48936;DHT22;34745;52.276;10.528;2024-03-22T10:41:26;13.00;1.00
48936;DHT22;34745;52.276;10.528;2024-03-22T10:44:11;13.00;1.00
48936;DHT22;34745;52.276;10.528;2024-03-22T10:46:58;13.20;1.00
48936;DHT22;34745;52.276;10.528;2024-03-22T10:49:47;13.30;1.00
48936;DHT22;34745;52.276;10.528;2024-03-22T10:52:35;13.10;1.00
48936;DHT22;34745;52.276;10.528;2024-03-22T10:55:24;13.20;1.00
48936;DHT22;34745;52.276;10.528;2024-03-22T10:58:16;13.40;1.00
48936;DHT22;34745;52.276;10.528;2024-03-22T11:01:01;13.20;1.00
48936;DHT22;34745;52.276;10.528;2024-03-22T11:03:47;13.10;1.00
48936;DHT22;34745;52.276;10.528;2024-03-22T11:06:32;13.10;1.00
48936;DHT22;34745;52.276;10.528;2024-03-22T11:09:21;13.20;1.00
48936;DHT22;34745;52.276;10.528;2024-03-22T11:12:08;13.20;1.00
48936;DHT22;34745;52.276;10.528;2024-03-22T11:14:55;13.20;1.00
48936;DHT22;34745;52.276;10.528;2024-03-22T11:17:40;13.20;1.00
48936;DHT22;34745;52.276;10.528;2024-03-22T11:20:26;13.20;1.00
48936;DHT22;34745;52.276;10.528;2024-03-22T11:23:11;13.20;1.00
48936;DHT22;34745;52.276;10.528;2024-03-22T11:25:56;13.30;1.00
48936;DHT22;34745;52.276;10.528;2024-03-22T11:28:42;13.20;1.00
48936;DHT22;34745;52.276;10.528;2024-03-22T11:31:29;13.30;1.00
48936;DHT22;34745;52.276;10.528;2024-03-22T11:34:14;13.30;1.00
48936;DHT22;34745;52.276;10.528;2024-03-22T11:36:59;13.30;1.00
48936;DHT22;34745;52.276;10.528;2024-03-22T11:39:44;13.30;1.00
48936;DHT22;34745;52.276;10.528;2024-03-22T11:42:29;13.30;1.00
48936;DHT22;34745;52.276;10.528;2024-03-22T11:45:16;13.20;1.00
48936;DHT22;34745;52.276;10.528;2024-03-22T11:48:06;13.10;1.00
48936;DHT22;34745;52.276;10.528;2024-03-22T11:50:51;13.10;1.00
48936;DHT22;34745;52.276;10.528;2024-03-22T11:53:36;13.10;1.00
48936;DHT22;34745;52.276;10.528;2024-03-22T11:56:22;13.20;1.00
48936;DHT22;34745;52.276;10.528;2024-03-22T11:59:07;13.40;1.00
48936;DHT22;34745;52.276;10.528;2024-03-22T12:01:51;13.50;1.00
48936;DHT22;34745;52.276;10.528;2024-03-22T12:04:40;13.60;1.00
48936;DHT22;34745;52.276;10.528;2024-03-22T12:07:25;13.60;1.00
48936;DHT22;34745;52.276;10.528;2024-03-22T12:10:10;13.70;1.00
48936;DHT22;34745;52.276;10.528;2024-03-22T12:12:55;13.70;1.00
48936;DHT22;34745;52.276;10.528;2024-03-22T12:15:42;13.70;1.00
48936;DHT22;34745;52.276;10.528;2024-03-22T12:18:26;13.70;1.00
48936;DHT22;34745;52.276;10.528;2024-03-22T12:21:13;13.60;1.00
48936;DHT22;34745;52.276;10.528;2024-03-22T12:23:58;13.60;1.00
48936;DHT22;34745;52.276;10.528;2024-03-22T12:26:43;13.60;1.00
48936;DHT22;34745;52.276;10.528;2024-03-22T12:29:27;13.50;1.00
48936;DHT22;34745;52.276;10.528;2024-03-22T12:32:12;13.50;1.00
48936;DHT22;34745;52.276;10.528;2024-03-22T12:34:57;13.50;1.00
48936;DHT22;34745;52.276;10.528;2024-03-22T12:37:45;13.60;1.00
48936;DHT22;34745;52.276;10.528;2024-03-22T12:40:30;13.60;1.00
48936;DHT22;34745;52.276;10.528;2024-03-22T12:43:17;13.70;1.00
48936;DHT22;34745;52.276;10.528;2024-03-22T12:46:03;13.70;1.00
48936;DHT22;34745;52.276;10.528;2024-03-22T12:48:49;13.70;1.00
48936;DHT22;34745;52.276;10.528;2024-03-22T12:51:35;13.70;1.00
48936;DHT22;34745;52.276;10.528;2024-03-22T12:54:21;13.70;1.00
48936;DHT22;34745;52.276;10.528;2024-03-22T12:57:07;13.70;1.00
48936;DHT22;34745;52.276;10.528;2024-03-22T12:59:52;13.70;1.00
48936;DHT22;34745;52.276;10.528;2024-03-22T13:02:37;13.60;1.00
48936;DHT22;34745;52.276;10.528;2024-03-22T13:05:21;13.50;1.00
48936;DHT22;34745;52.276;10.528;2024-03-22T13:08:06;13.40;1.00
48936;DHT22;34745;52.276;10.528;2024-03-22T13:10:53;13.40;1.00
48936;DHT22;34745;52.276;10.528;2024-03-22T13:13:38;13.40;1.00
48936;DHT22;34745;52.276;10.528;2024-03-22T13:16:23;13.40;1.00
48936;DHT22;34745;52.276;10.528;2024-03-22T13:19:08;13.40;1.00
48936;DHT22;34745;52.276;10.528;2024-03-22T13:21:56;13.40;1.00
48936;DHT22;34745;52.276;10.528;2024-03-22T13:24:42;13.40;1.00
48936;DHT22;34745;52.276;10.528;2024-03-22T13:27:28;13.40;1.00
48936;DHT22;34745;52.276;10.528;2024-03-22T13:30:13;13.40;1.00
48936;DHT22;34745;52.276;10.528;2024-03-22T13:32:59;13.40;1.00
48936;DHT22;34745;52.276;10.528;2024-03-22T13:35:45;13.40;1.00
48936;DHT22;34745;52.276;10.528;2024-03-22T13:38:29;13.40;1.00
48936;DHT22;34745;52.276;10.528;2024-03-22T13:41:14;13.50;1.00
48936;DHT22;34745;52.276;10.528;2024-03-22T13:44:01;13.50;1.00
48936;DHT22;34745;52.276;10.528;2024-03-22T13:46:49;13.50;1.00
48936;DHT22;34745;52.276;10.528;2024-03-22T13:49:34;13.40;1.00
48936;DHT22;34745;52.276;10.528;2024-03-22T13:52:20;13.30;1.00
48936;DHT22;34745;52.276;10.528;2024-03-22T13:55:08;13.30;1.00
48936;DHT22;34745;52.276;10.528;2024-03-22T13:57:53;13.20;1.00
48936;DHT22;34745;52.276;10.528;2024-03-22T14:00:43;13.20;1.00
48936;DHT22;34745;52.276;10.528;2024-03-22T14:03:27;13.00;1.00
48936;DHT22;34745;52.276;10.528;2024-03-22T14:06:12;13.00;1.00
48936;DHT22;34745;52.276;10.528;2024-03-22T14:08:57;13.10;1.00
48936;DHT22;34745;52.276;10.528;2024-03-22T14:11:45;13.00;1.00
48936;DHT22;34745;52.276;10.528;2024-03-22T14:14:33;12.90;1.00
48936;DHT22;34745;52.276;10.528;2024-03-22T14:17:19;12.90;1.00
48936;DHT22;34745;52.276;10.528;2024-03-22T14:20:05;12.90;1.00
48936;DHT22;34745;52.276;10.528;2024-03-22T14:22:56;12.80;1.00
48936;DHT22;34745;52.276;10.528;2024-03-22T14:25:41;12.70;1.00
48936;DHT22;34745;52.276;10.528;2024-03-22T14:28:29;12.70;1.00
48936;DHT22;34745;52.276;10.528;2024-03-22T14:31:14;12.50;1.00
48936;DHT22;34745;52.276;10.528;2024-03-22T14:34:00;12.50;2.30
48936;DHT22;34745;52.276;10.528;2024-03-22T14:36:45;12.50;8.70
48936;DHT22;34745;52.276;10.528;2024-03-22T14:39:30;12.40;14.60
48936;DHT22;34745;52.276;10.528;2024-03-22T14:42:16;12.40;23.10
48936;DHT22;34745;52.276;10.528;2024-03-22T14:45:05;12.30;27.90
48936;DHT22;34745;52.276;10.528;2024-03-22T14:47:50;12.30;37.00
48936;DHT22;34745;52.276;10.528;2024-03-22T14:50:37;12.20;40.50
48936;DHT22;34745;52.276;10.528;2024-03-22T14:53:22;12.20;46.00
48936;DHT22;34745;52.276;10.528;2024-03-22T14:56:08;12.10;53.30
48936;DHT22;34745;52.276;10.528;2024-03-22T14:58:53;12.00;54.40
48936;DHT22;34745;52.276;10.528;2024-03-22T15:01:41;12.10;65.70
48936;DHT22;34745;52.276;10.528;2024-03-22T15:04:26;12.10;72.80
48936;DHT22;34745;52.276;10.528;2024-03-22T15:07:12;12.00;86.20
48936;DHT22;34745;52.276;10.528;2024-03-22T15:09:57;12.00;99.90
48936;DHT22;34745;52.276;10.528;2024-03-22T15:12:42;11.90;97.00
48936;DHT22;34745;52.276;10.528;2024-03-22T15:15:27;11.90;99.90
48936;DHT22;34745;52.276;10.528;2024-03-22T15:18:12;11.80;99.90
48936;DHT22;34745;52.276;10.528;2024-03-22T15:20:57;11.70;99.90
48936;DHT22;34745;52.276;10.528;2024-03-22T15:23:44;11.70;99.90
48936;DHT22;34745;52.276;10.528;2024-03-22T15:26:31;11.70;99.90
48936;DHT22;34745;52.276;10.528;2024-03-22T15:29:17;11.60;99.90
48936;DHT22;34745;52.276;10.528;2024-03-22T15:32:01;11.60;99.90
48936;DHT22;34745;52.276;10.528;2024-03-22T15:34:46;11.60;99.90
48936;DHT22;34745;52.276;10.528;2024-03-22T15:37:31;11.50;99.90
48936;DHT22;34745;52.276;10.528;2024-03-22T15:40:17;11.50;99.90
48936;DHT22;34745;52.276;10.528;2024-03-22T15:43:04;11.50;99.90
48936;DHT22;34745;52.276;10.528;2024-03-22T15:45:53;11.40;99.90
48936;DHT22;34745;52.276;10.528;2024-03-22T15:48:38;11.40;99.90
48936;DHT22;34745;52.276;10.528;2024-03-22T15:51:23;11.30;99.90
48936;DHT22;34745;52.276;10.528;2024-03-22T15:54:08;11.30;99.90
48936;DHT22;34745;52.276;10.528;2024-03-22T15:56:54;11.20;99.90
48936;DHT22;34745;52.276;10.528;2024-03-22T15:59:39;11.20;99.90
48936;DHT22;34745;52.276;10.528;2024-03-22T16:02:23;11.20;99.90
48936;DHT22;34745;52.276;10.528;2024-03-22T16:05:08;11.20;99.90
48936;DHT22;34745;52.276;10.528;2024-03-22T16:07:53;11.20;99.90
48936;DHT22;34745;52.276;10.528;2024-03-22T16:10:38;11.10;99.90
48936;DHT22;34745;52.276;10.528;2024-03-22T16:13:24;11.10;99.90
48936;DHT22;34745;52.276;10.528;2024-03-22T16:16:43;11.10;99.90
48936;DHT22;34745;52.276;10.528;2024-03-22T16:19:28;11.10;99.90
48936;DHT22;34745;52.276;10.528;2024-03-22T16:22:13;11.10;99.90
48936;DHT22;34745;52.276;10.528;2024-03-22T16:24:58;11.00;99.90
48936;DHT22;34745;52.276;10.528;2024-03-22T16:27:42;11.00;99.90
48936;DHT22;34745;52.276;10.528;2024-03-22T16:30:28;11.00;99.90
48936;DHT22;34745;52.276;10.528;2024-03-22T16:33:13;11.00;99.90
48936;DHT22;34745;52.276;10.528;2024-03-22T16:35:58;11.00;99.90
48936;DHT22;34745;52.276;10.528;2024-03-22T16:38:44;11.00;99.90
48936;DHT22;34745;52.276;10.528;2024-03-22T16:41:29;10.90;99.90
48936;DHT22;34745;52.276;10.528;2024-03-22T16:44:14;10.90;99.90
48936;DHT22;34745;52.276;10.528;2024-03-22T16:47:03;10.80;99.90
48936;DHT22;34745;52.276;10.528;2024-03-22T16:49:48;10.80;99.90
48936;DHT22;34745;52.276;10.528;2024-03-22T16:52:34;10.90;99.90
48936;DHT22;34745;52.276;10.528;2024-03-22T16:55:19;10.90;99.90
48936;DHT22;34745;52.276;10.528;2024-03-22T16:58:05;10.90;99.90
48936;DHT22;34745;52.276;10.528;2024-03-22T17:00:50;10.80;99.90
48936;DHT22;34745;52.276;10.528;2024-03-22T17:03:36;10.80;99.90
48936;DHT22;34745;52.276;10.528;2024-03-22T17:06:21;10.70;99.90
48936;DHT22;34745;52.276;10.528;2024-03-22T17:09:06;10.70;99.90
48936;DHT22;34745;52.276;10.528;2024-03-22T17:11:53;10.70;99.90
48936;DHT22;34745;52.276;10.528;2024-03-22T17:14:38;10.70;99.90
48936;DHT22;34745;52.276;10.528;2024-03-22T17:17:23;10.70;99.90
48936;DHT22;34745;52.276;10.528;2024-03-22T17:20:10;10.70;99.90
48936;DHT22;34745;52.276;10.528;2024-03-22T17:22:58;10.70;99.90
48936;DHT22;34745;52.276;10.528;2024-03-22T17:25:43;10.70;99.90
48936;DHT22;34745;52.276;10.528;2024-03-22T17:28:28;10.70;99.90
48936;DHT22;34745;52.276;10.528;2024-03-22T17:31:14;10.70;99.90